Time;durP1;ratioP1;P1;durP2;ratioP2;P2;SDS_P1;SDS_P2;PMS_P1;PMS_P2;Temp;Humidity;BMP_temperature;BMP_pressure;BME280_temperature;BME280_humidity;BME280_pressure;Samples;Min_cycle;Max_cycle;Signal;HPM_P1;HPM_P2
2022/10/09 00:00:48;;;;;;;10.75;5.18;;;;;;;10.01;85.03;102517.44;5040045;28;20036;-83
2022/10/09 00:03:16;;;;;;;9.77;4.95;;;;;;;9.98;85.45;102524.53;5044512;28;20033;-83
2022/10/09 00:05:42;;;;;;;8.80;3.85;;;;;;;9.94;85.68;102524.38;5043562;28;20035;-83
2022/10/09 00:08:08;;;;;;;10.07;4.47;;;;;;;9.94;85.52;102520.78;5050587;28;20025;-83
2022/10/09 00:10:33;;;;;;;10.27;4.40;;;;;;;9.93;84.71;102522.75;5023875;28;20091;-83
2022/10/09 00:12:59;;;;;;;9.95;5.05;;;;;;;9.90;85.19;102512.22;5042495;28;20942;-83
2022/10/09 00:15:24;;;;;;;9.60;4.03;;;;;;;9.92;84.54;102521.09;5028653;28;20028;-83
2022/10/09 00:17:49;;;;;;;8.02;4.55;;;;;;;9.88;84.87;102516.50;5031687;28;20098;-83
2022/10/09 00:20:15;;;;;;;9.88;4.15;;;;;;;9.85;84.64;102515.19;5042332;28;20981;-83
2022/10/09 00:22:42;;;;;;;10.65;4.28;;;;;;;9.86;85.35;102527.22;5035165;28;20063;-83
2022/10/09 00:25:07;;;;;;;7.28;4.05;;;;;;;9.83;85.63;102534.28;5040407;28;20016;-83
2022/10/09 00:27:33;;;;;;;12.38;5.07;;;;;;;9.81;84.83;102522.63;5041968;28;20033;-83
2022/10/09 00:29:58;;;;;;;5.82;3.90;;;;;;;9.83;85.17;102528.69;5038667;28;20028;-82
2022/10/09 00:32:23;;;;;;;7.68;4.05;;;;;;;9.78;85.61;102531.66;5042223;28;20031;-83
2022/10/09 00:34:50;;;;;;;6.35;4.70;;;;;;;9.75;86.02;102526.75;5020543;28;20029;-83
2022/10/09 00:37:16;;;;;;;9.40;4.03;;;;;;;9.78;85.11;102517.66;5039743;28;20025;-83
2022/10/09 00:39:41;;;;;;;9.43;5.00;;;;;;;9.79;85.44;102524.91;5038411;28;20029;-83
2022/10/09 00:42:10;;;;;;;7.05;4.03;;;;;;;9.72;85.52;102521.81;5020815;28;20033;-84
2022/10/09 00:44:50;;;;;;;8.75;3.78;;;;;;;9.72;85.29;102521.81;5043485;28;20071;-83
2022/10/09 00:47:22;;;;;;;9.35;4.15;;;;;;;9.69;84.75;102516.88;5026181;28;20035;-83
2022/10/09 00:49:48;;;;;;;7.85;4.10;;;;;;;9.67;85.45;102519.19;5025698;28;20465;-83
2022/10/09 00:52:15;;;;;;;11.57;4.82;;;;;;;9.64;85.27;102522.66;5043469;28;20472;-83
2022/10/09 00:54:41;;;;;;;5.35;3.63;;;;;;;9.67;85.24;102525.59;5038534;28;20248;-83
2022/10/09 00:57:08;;;;;;;8.27;3.80;;;;;;;9.66;84.63;102523.97;5021472;28;20029;-83
2022/10/09 00:59:34;;;;;;;13.10;4.32;;;;;;;9.61;85.11;102532.50;5044058;28;20025;-83
2022/10/09 01:01:59;;;;;;;10.35;3.78;;;;;;;9.63;85.81;102533.00;5039777;28;20062;-83
2022/10/09 01:04:25;;;;;;;9.98;3.97;;;;;;;9.62;84.79;102527.75;5041235;28;20055;-83
2022/10/09 01:07:10;;;;;;;5.43;3.97;;;;;;;9.61;85.52;102531.69;5023357;28;20034;-83
2022/10/09 01:10:10;;;;;;;7.50;4.63;;;;;;;9.51;85.77;102527.28;5023387;28;20564;-83
2022/10/09 01:13:00;;;;;;;6.70;3.78;;;;;;;9.56;85.17;102530.72;5016489;28;20047;-84
2022/10/09 01:15:47;;;;;;;13.38;4.40;;;;;;;9.52;84.88;102529.72;5027841;28;20119;-83
2022/10/09 01:18:28;;;;;;;7.47;4.00;;;;;;;9.55;84.96;102525.47;5022901;28;20037;-83
2022/10/09 01:21:05;;;;;;;8.30;4.03;;;;;;;9.48;84.82;102523.16;5039914;28;20021;-82
2022/10/09 01:23:49;;;;;;;10.90;4.38;;;;;;;9.53;84.45;102531.38;5039292;28;20035;-83
2022/10/09 01:26:23;;;;;;;6.88;4.25;;;;;;;9.42;84.65;102524.47;5041000;28;20032;-83
2022/10/09 01:28:56;;;;;;;8.63;4.50;;;;;;;9.41;84.55;102514.44;5038161;28;20036;-83
2022/10/09 01:31:23;;;;;;;9.02;4.22;;;;;;;9.39;85.17;102507.56;5041142;28;20452;-83
2022/10/09 01:33:50;;;;;;;8.10;4.25;;;;;;;9.33;85.07;102501.31;5037935;28;20037;-84
2022/10/09 01:36:17;;;;;;;5.95;3.95;;;;;;;9.40;84.65;102512.78;5022091;28;20020;-83
2022/10/09 01:38:44;;;;;;;11.85;4.30;;;;;;;9.43;84.55;102514.94;5037388;28;20432;-83
2022/10/09 01:41:09;;;;;;;8.43;3.80;;;;;;;9.36;84.46;102503.47;5037027;28;20075;-83
2022/10/09 01:43:35;;;;;;;8.65;4.07;;;;;;;9.33;84.61;102507.72;5040598;28;20399;-83
2022/10/09 01:46:17;;;;;;;8.80;3.97;;;;;;;9.31;84.61;102506.41;5026803;28;20480;-83
2022/10/09 01:48:46;;;;;;;6.25;3.65;;;;;;;9.32;84.45;102503.28;5022598;28;20321;-83
2022/10/09 01:51:15;;;;;;;6.43;3.72;;;;;;;9.33;85.07;102501.31;5024902;28;20400;-83
2022/10/09 01:53:43;;;;;;;7.18;3.92;;;;;;;9.33;84.44;102502.13;5044360;28;20120;-83
2022/10/09 01:56:13;;;;;;;11.13;4.07;;;;;;;9.33;84.67;102502.13;5043291;28;20056;-82
2022/10/09 01:58:47;;;;;;;8.75;3.60;;;;;;;9.18;85.55;102493.44;5040686;28;20110;-84
2022/10/09 02:01:35;;;;;;;9.40;4.18;;;;;;;9.31;84.74;102496.03;5042512;28;20029;-83
2022/10/09 02:04:04;;;;;;;5.70;3.60;;;;;;;9.27;85.15;102497.84;5043456;28;20492;-83
2022/10/09 02:06:30;;;;;;;11.65;4.50;;;;;;;9.18;84.74;102491.44;5048650;28;20029;-83
2022/10/09 02:08:56;;;;;;;5.35;3.83;;;;;;;9.24;84.89;102495.72;5048495;28;20033;-83
2022/10/09 02:11:26;;;;;;;6.20;4.05;;;;;;;9.27;85.10;102495.06;5032602;28;20025;-84
2022/10/09 02:13:53;;;;;;;9.68;4.32;;;;;;;9.24;84.16;102494.91;5032432;28;20508;-84
2022/10/09 02:16:32;;;;;;;10.50;4.28;;;;;;;9.25;84.36;102496.53;5044991;28;20462;-83
2022/10/09 02:19:12;;;;;;;10.52;4.80;;;;;;;9.16;85.00;102486.19;5028606;28;20021;-84
2022/10/09 02:21:42;;;;;;;6.57;3.70;;;;;;;9.21;84.27;102485.19;5044583;28;20039;-84
2022/10/09 02:24:12;;;;;;;11.88;4.55;;;;;;;9.19;84.94;102483.88;5030768;28;20029;-84
2022/10/09 02:26:38;;;;;;;6.07;3.60;;;;;;;9.17;84.70;102484.22;5045911;28;20071;-84
2022/10/09 02:29:04;;;;;;;8.35;4.00;;;;;;;9.16;85.00;102491.78;5025957;28;20033;-83
2022/10/09 02:31:32;;;;;;;8.15;4.30;;;;;;;9.15;85.02;102481.75;5042311;28;20129;-84
2022/10/09 02:34:09;;;;;;;13.38;4.88;;;;;;;9.05;85.26;102481.28;5026188;28;20103;-84
2022/10/09 02:36:35;;;;;;;11.43;3.60;;;;;;;9.09;84.86;102483.06;5030272;28;21104;-84
2022/10/09 02:39:02;;;;;;;12.25;4.35;;;;;;;9.07;85.11;102477.00;5028038;28;20146;-84
2022/10/09 02:41:27;;;;;;;11.82;4.63;;;;;;;9.07;84.60;102474.19;5025763;28;20506;-83
2022/10/09 02:43:52;;;;;;;9.32;4.85;;;;;;;9.06;85.11;102478.13;5031814;28;20017;-84
2022/10/09 02:46:18;;;;;;;7.45;4.60;;;;;;;9.04;84.92;102469.25;5048284;28;20063;-83
2022/10/09 02:48:44;;;;;;;7.78;4.75;;;;;;;8.97;84.65;102470.91;5053041;28;20075;-84
2022/10/09 02:51:09;;;;;;;10.07;4.72;;;;;;;9.01;84.48;102472.72;5049275;28;20508;-82
2022/10/09 02:53:34;;;;;;;7.63;4.00;;;;;;;8.95;84.25;102466.47;5053913;28;20029;-84
2022/10/09 02:56:00;;;;;;;9.60;4.00;;;;;;;9.00;84.32;102475.84;5054518;28;20520;-84
2022/10/09 02:58:25;;;;;;;7.20;4.25;;;;;;;8.92;84.63;102469.13;5044757;28;20162;-84
2022/10/09 03:00:52;;;;;;;7.68;4.28;;;;;;;8.91;84.95;102473.03;5035384;28;20065;-84
2022/10/09 03:03:18;;;;;;;7.68;4.35;;;;;;;9.00;84.15;102470.25;5033670;28;20048;-83
2022/10/09 03:05:44;;;;;;;8.43;4.60;;;;;;;8.97;84.40;102462.53;5047892;28;20082;-84
2022/10/09 03:08:09;;;;;;;7.70;4.50;;;;;;;8.91;84.50;102461.88;5025377;28;20050;-83
2022/10/09 03:10:39;;;;;;;12.02;4.85;;;;;;;8.94;84.36;102470.41;5042319;28;20495;-82
2022/10/09 03:13:05;;;;;;;7.60;4.43;;;;;;;8.92;84.55;102472.72;5047549;28;20092;-82
2022/10/09 03:15:37;;;;;;;6.20;3.78;;;;;;;8.84;84.30;102458.75;5031705;28;20116;-82
2022/10/09 03:18:02;;;;;;;12.07;4.35;;;;;;;8.78;84.31;102462.84;5030243;28;20424;-84
2022/10/09 03:20:28;;;;;;;8.20;5.40;;;;;;;8.83;84.54;102465.47;5052491;28;20049;-84
2022/10/09 03:22:55;;;;;;;7.53;3.92;;;;;;;8.84;83.99;102459.56;5033998;28;20029;-83
2022/10/09 03:25:20;;;;;;;9.85;4.18;;;;;;;8.77;84.10;102459.25;5045083;28;20095;-84
2022/10/09 03:27:46;;;;;;;11.52;5.47;;;;;;;8.82;83.75;102456.28;5042739;28;20108;-84
2022/10/09 03:30:12;;;;;;;6.97;3.85;;;;;;;8.80;84.10;102454.97;5040822;28;20028;-83
2022/10/09 03:32:37;;;;;;;9.18;5.40;;;;;;;8.77;83.67;102448.06;5048944;28;20055;-84
2022/10/09 03:35:02;;;;;;;6.78;3.80;;;;;;;8.75;83.94;102455.97;5043599;28;20033;-84
2022/10/09 03:37:28;;;;;;;11.23;4.55;;;;;;;8.75;84.25;102456.78;5033491;28;20024;-84
2022/10/09 03:39:54;;;;;;;10.68;4.68;;;;;;;8.76;83.75;102460.38;5046819;28;20108;-84
2022/10/09 03:42:19;;;;;;;6.35;4.82;;;;;;;8.73;83.58;102467.44;5024820;28;20392;-84
2022/10/09 03:44:44;;;;;;;8.63;4.95;;;;;;;8.70;84.41;102461.69;5049251;28;20106;-84
2022/10/09 03:47:10;;;;;;;7.07;4.32;;;;;;;8.69;84.03;102454.47;5046779;28;20041;-84
2022/10/09 03:49:35;;;;;;;8.23;4.65;;;;;;;8.66;84.48;102464.28;5036817;28;20639;-83
2022/10/09 03:52:00;;;;;;;7.47;4.25;;;;;;;8.71;84.43;102466.94;5028428;28;20025;-84
2022/10/09 03:54:26;;;;;;;9.43;4.50;;;;;;;8.70;84.27;102472.84;5026247;28;20064;-84
2022/10/09 03:56:51;;;;;;;7.38;4.57;;;;;;;8.67;83.82;102471.53;5027531;28;20035;-84
2022/10/09 03:59:16;;;;;;;13.18;5.65;;;;;;;8.62;84.61;102468.91;5028056;28;20021;-84
2022/10/09 04:01:42;;;;;;;6.07;4.35;;;;;;;8.66;83.88;102472.66;5026665;28;20038;-84
2022/10/09 04:04:07;;;;;;;9.85;3.95;;;;;;;8.66;83.68;102474.66;5033017;28;20025;-84
2022/10/09 04:06:32;;;;;;;6.78;4.80;;;;;;;8.62;83.53;102480.09;5048681;28;20427;-84
2022/10/09 04:09:00;;;;;;;10.13;4.97;;;;;;;8.64;83.22;102482.53;5029806;28;20021;-84
2022/10/09 04:11:25;;;;;;;7.10;4.90;;;;;;;8.63;83.46;102478.91;5028664;28;20552;-82
2022/10/09 04:13:50;;;;;;;11.48;4.97;;;;;;;8.62;83.92;102476.44;5044526;28;20035;-84
2022/10/09 04:16:16;;;;;;;8.27;3.97;;;;;;;8.59;83.89;102468.75;5028968;28;20063;-84
2022/10/09 04:18:42;;;;;;;8.73;4.22;;;;;;;8.62;83.61;102485.66;5047156;28;20116;-82
2022/10/09 04:21:08;;;;;;;6.40;4.50;;;;;;;8.57;83.98;102482.19;5037478;28;20045;-82
2022/10/09 04:23:33;;;;;;;8.07;4.82;;;;;;;8.54;84.10;102478.91;5025372;28;20033;-84
2022/10/09 04:25:59;;;;;;;7.00;5.47;;;;;;;8.54;83.95;102483.66;5038703;28;20499;-83
2022/10/09 04:28:27;;;;;;;9.25;5.10;;;;;;;8.51;84.79;102479.53;5042439;28;20568;-83
2022/10/09 04:30:52;;;;;;;7.90;4.85;;;;;;;8.44;84.26;102472.81;5030122;28;20412;-84
2022/10/09 04:33:18;;;;;;;10.90;5.43;;;;;;;8.41;85.74;102476.22;5018721;28;20036;-83
2022/10/09 04:35:45;;;;;;;6.90;5.13;;;;;;;8.41;85.78;102479.03;5022922;28;20033;-84
2022/10/09 04:38:10;;;;;;;6.00;5.05;;;;;;;8.44;85.82;102483.97;5040628;28;20024;-83
2022/10/09 04:40:36;;;;;;;8.20;4.80;;;;;;;8.41;86.07;102473.44;5040476;28;20039;-84
2022/10/09 04:43:01;;;;;;;7.45;4.65;;;;;;;8.38;86.42;102479.66;5043263;28;20366;-83
2022/10/09 04:45:27;;;;;;;15.85;5.60;;;;;;;8.38;86.31;102468.50;5025758;28;20028;-84
2022/10/09 04:47:52;;;;;;;10.50;5.45;;;;;;;8.33;86.52;102473.06;5037724;28;20056;-84
2022/10/09 04:50:17;;;;;;;6.07;4.30;;;;;;;8.27;87.22;102460.41;5023353;28;20094;-83
2022/10/09 04:52:43;;;;;;;6.40;5.25;;;;;;;8.32;86.75;102465.03;5045957;28;20021;-84
2022/10/09 04:55:08;;;;;;;9.63;5.45;;;;;;;8.35;86.60;102465.19;5040746;28;20048;-82
2022/10/09 04:57:34;;;;;;;7.45;4.85;;;;;;;8.33;86.62;102459.13;5039677;28;20025;-84
2022/10/09 04:59:59;;;;;;;7.47;4.90;;;;;;;8.15;88.53;102457.41;5021038;28;20554;-81
2022/10/09 05:02:25;;;;;;;8.00;4.93;;;;;;;8.30;87.35;102451.38;5026588;28;20028;-84
2022/10/09 05:04:50;;;;;;;6.88;4.57;;;;;;;8.35;86.65;102448.47;5021593;28;20028;-84
2022/10/09 05:07:15;;;;;;;7.20;5.63;;;;;;;8.28;87.86;102459.25;5022200;28;20052;-83
2022/10/09 05:09:41;;;;;;;7.60;5.28;;;;;;;8.16;88.12;102447.91;5045087;28;20081;-83
2022/10/09 05:12:06;;;;;;;7.90;5.10;;;;;;;8.28;86.62;102453.69;5042358;28;20064;-82
2022/10/09 05:14:31;;;;;;;6.43;4.75;;;;;;;8.27;87.63;102454.03;5044996;28;20025;-84
2022/10/09 05:17:01;;;;;;;7.57;4.47;;;;;;;8.27;86.91;102446.47;5038490;28;20495;-83
2022/10/09 05:19:27;;;;;;;6.45;4.53;;;;;;;8.29;86.81;102449.75;5040749;28;20060;-83
2022/10/09 05:21:53;;;;;;;6.75;5.97;;;;;;;8.21;88.43;102452.53;5026114;28;20155;-82
2022/10/09 05:24:18;;;;;;;11.75;5.75;;;;;;;8.17;88.36;102443.16;5042728;28;20051;-84
2022/10/09 05:26:43;;;;;;;10.82;6.32;;;;;;;8.22;88.24;102446.63;5039767;28;20024;-83
2022/10/09 05:29:09;;;;;;;7.85;4.72;;;;;;;8.32;87.82;102453.84;5045427;28;20534;-83
2022/10/09 05:31:34;;;;;;;6.47;4.60;;;;;;;8.30;86.80;102451.38;5041511;28;20495;-83
2022/10/09 05:34:00;;;;;;;8.10;5.03;;;;;;;8.25;87.70;102451.53;5031721;28;20052;-83
2022/10/09 05:36:26;;;;;;;8.25;4.72;;;;;;;8.26;87.24;102452.38;5027782;28;20032;-83
2022/10/09 05:38:52;;;;;;;10.60;5.30;;;;;;;8.34;87.05;102455.16;5025557;28;20190;-83
2022/10/09 05:41:18;;;;;;;7.10;5.30;;;;;;;8.33;86.91;102456.34;5039281;28;20161;-83
2022/10/09 05:43:46;;;;;;;6.93;4.88;;;;;;;8.33;86.38;102461.91;5050001;28;20048;-84
2022/10/09 05:46:17;;;;;;;7.85;5.72;;;;;;;8.07;88.17;102450.66;5046016;28;20423;-83
2022/10/09 05:48:44;;;;;;;9.95;4.65;;;;;;;8.20;88.29;102456.44;5037474;28;20116;-84
2022/10/09 05:51:10;;;;;;;6.25;5.10;;;;;;;8.11;88.56;102450.84;5052575;28;20134;-84
2022/10/09 05:53:36;;;;;;;8.73;5.70;;;;;;;8.21;87.01;102452.53;5033551;28;20754;-84
2022/10/09 05:56:13;;;;;;;8.32;4.88;;;;;;;8.21;87.56;102446.94;5050379;28;20041;-83
2022/10/09 05:58:38;;;;;;;6.75;5.00;;;;;;;8.12;88.05;102441.34;5029303;28;20033;-83
2022/10/09 06:01:03;;;;;;;5.80;4.65;;;;;;;8.14;86.90;102450.22;5042178;28;20027;-83
2022/10/09 06:03:29;;;;;;;6.72;5.28;;;;;;;8.19;87.34;102455.63;5027051;28;20054;-82
2022/10/09 06:06:03;;;;;;;7.50;5.30;;;;;;;8.14;87.31;102453.81;5049732;28;20401;-83
2022/10/09 06:08:31;;;;;;;6.45;4.63;;;;;;;8.13;87.52;102454.13;5030064;28;20033;-82
2022/10/09 06:10:57;;;;;;;6.82;4.95;;;;;;;8.14;86.87;102458.56;5047546;28;20434;-83
2022/10/09 06:13:22;;;;;;;6.78;4.75;;;;;;;8.05;87.69;102460.50;5030357;28;20060;-84
2022/10/09 06:15:54;;;;;;;7.90;5.15;;;;;;;8.02;87.50;102461.16;5048895;28;21948;-83
2022/10/09 06:18:20;;;;;;;5.37;4.20;;;;;;;8.02;87.44;102461.16;5024668;28;20071;-83
2022/10/09 06:20:56;;;;;;;9.20;5.22;;;;;;;8.13;86.79;102460.53;5023298;28;20064;-83
2022/10/09 06:23:21;;;;;;;9.55;6.32;;;;;;;8.04;87.39;102453.28;5041439;28;20028;-83
2022/10/09 06:25:55;;;;;;;9.80;5.20;;;;;;;8.02;87.63;102461.16;5035484;28;20134;-83
2022/10/09 06:28:20;;;;;;;9.23;5.13;;;;;;;8.09;87.09;102467.06;5043544;28;20040;-83
2022/10/09 06:30:45;;;;;;;11.13;5.82;;;;;;;8.05;87.62;102469.69;5027279;28;20393;-83
2022/10/09 06:33:11;;;;;;;8.25;5.20;;;;;;;8.21;86.56;102467.28;5026625;28;20127;-83
2022/10/09 06:35:36;;;;;;;8.93;5.72;;;;;;;8.09;86.80;102467.88;5044711;28;20029;-83
2022/10/09 06:38:02;;;;;;;8.85;5.07;;;;;;;8.09;87.45;102473.47;5046376;28;20024;-82
2022/10/09 06:40:27;;;;;;;8.50;5.45;;;;;;;8.06;87.60;102481.69;5027448;28;20028;-83
2022/10/09 06:42:52;;;;;;;8.88;5.43;;;;;;;8.04;87.66;102476.41;5041258;28;20511;-83
2022/10/09 06:45:18;;;;;;;9.60;5.72;;;;;;;8.07;88.46;102491.66;5024521;28;20066;-83
2022/10/09 06:47:43;;;;;;;11.05;6.38;;;;;;;8.09;87.60;102475.44;5041192;28;20085;-83
2022/10/09 06:50:08;;;;;;;7.55;6.00;;;;;;;8.11;87.84;102475.94;5034035;28;20075;-81
2022/10/09 06:52:34;;;;;;;11.30;5.57;;;;;;;8.17;87.64;102479.41;5042353;28;20056;-83
2022/10/09 06:54:59;;;;;;;9.98;5.30;;;;;;;8.01;89.91;102481.81;5039742;28;20041;-84
2022/10/09 06:57:24;;;;;;;6.93;5.95;;;;;;;7.99;90.04;102484.09;5042261;28;20150;-83
2022/10/09 06:59:50;;;;;;;12.98;7.15;;;;;;;7.99;91.17;102478.50;5027045;28;20131;-81
2022/10/09 07:02:16;;;;;;;6.95;5.32;;;;;;;8.11;89.50;102489.88;5024109;28;20060;-83
2022/10/09 07:04:42;;;;;;;9.52;6.10;;;;;;;7.93;91.29;102475.06;5040288;28;20060;-84
2022/10/09 07:07:08;;;;;;;10.43;7.15;;;;;;;7.99;92.34;102484.09;5042408;28;20070;-83
2022/10/09 07:09:33;;;;;;;16.73;9.00;;;;;;;7.64;95.86;102489.50;5041921;28;20075;-83
2022/10/09 07:11:59;;;;;;;12.93;6.30;;;;;;;7.65;96.69;102496.69;5038238;28;20091;-83
2022/10/09 07:14:24;;;;;;;14.13;8.27;;;;;;;7.81;95.35;102497.94;5027411;28;20269;-83
2022/10/09 07:16:50;;;;;;;14.00;7.70;;;;;;;7.72;95.65;102497.09;5045286;28;20036;-83
2022/10/09 07:19:17;;;;;;;9.98;7.18;;;;;;;8.03;93.09;102501.81;5036371;28;20028;-83
2022/10/09 07:21:44;;;;;;;18.05;8.23;;;;;;;7.98;96.91;102502.78;5036674;28;20033;-83
2022/10/09 07:24:10;;;;;;;12.65;9.15;;;;;;;7.72;96.22;102505.44;5030448;28;20021;-84
2022/10/09 07:26:38;;;;;;;14.90;8.75;;;;;;;7.84;96.84;102505.69;5041788;28;20028;-84
2022/10/09 07:29:05;;;;;;;18.30;9.90;;;;;;;7.70;99.03;102504.94;5025668;28;20025;-85
2022/10/09 07:31:31;;;;;;;11.75;7.88;;;;;;;7.80;97.70;102503.84;5045665;28;20029;-85
2022/10/09 07:33:56;;;;;;;23.52;10.98;;;;;;;7.94;97.76;102510.97;5026141;28;20041;-83
2022/10/09 07:36:22;;;;;;;12.80;8.90;;;;;;;7.99;97.24;102507.25;5043278;28;20489;-86
2022/10/09 07:38:50;;;;;;;22.88;9.88;;;;;;;8.03;96.91;102512.97;5040665;28;20476;-85
2022/10/09 07:41:15;;;;;;;11.88;8.35;;;;;;;8.14;96.81;102504.03;5038860;28;20029;-85
2022/10/09 07:43:41;;;;;;;11.55;7.88;;;;;;;8.26;93.67;102505.38;5036284;28;20138;-85
2022/10/09 07:46:10;;;;;;;15.00;8.45;;;;;;;8.05;97.82;102499.53;5018784;28;20377;-85
2022/10/09 07:48:36;;;;;;;17.92;8.50;;;;;;;8.27;94.74;102502.25;5040456;28;20484;-84
2022/10/09 07:51:24;;;;;;;12.35;7.57;;;;;;;8.22;94.43;102499.63;5028807;28;20043;-84
2022/10/09 07:53:51;;;;;;;16.58;9.30;;;;;;;8.24;97.33;102499.28;5040950;28;20029;-84
2022/10/09 07:56:21;;;;;;;15.38;9.32;;;;;;;8.24;99.21;102502.91;5030206;28;20119;-84
2022/10/09 07:58:55;;;;;;;11.65;7.85;;;;;;;8.34;95.81;102508.19;5023281;28;20043;-84
2022/10/09 08:01:22;;;;;;;12.82;7.18;;;;;;;8.32;96.18;102499.31;5020451;28;20048;-83
2022/10/09 08:03:49;;;;;;;20.98;10.50;;;;;;;8.42;99.47;102497.44;5031030;28;20024;-84
2022/10/09 08:06:15;;;;;;;11.93;7.35;;;;;;;8.47;95.42;102494.47;5026615;28;20112;-83
2022/10/09 08:08:41;;;;;;;11.35;7.82;;;;;;;8.57;96.16;102499.75;5034143;28;20040;-83
2022/10/09 08:11:09;;;;;;;12.90;9.65;;;;;;;8.66;96.87;102503.38;5040746;28;20028;-83
2022/10/09 08:13:35;;;;;;;17.30;9.18;;;;;;;8.53;98.00;102494.00;5025729;28;20444;-83
2022/10/09 08:16:00;;;;;;;17.90;9.27;;;;;;;8.61;97.23;102484.00;5025057;28;20052;-82
2022/10/09 08:18:25;;;;;;;17.50;9.57;;;;;;;8.75;97.73;102495.03;5040408;28;20037;-83
2022/10/09 08:21:23;;;;;;;17.38;9.68;;;;;;;8.79;96.13;102486.81;5036640;28;20024;-83
2022/10/09 08:23:52;;;;;;;15.45;7.65;;;;;;;8.89;94.88;102492.91;4981260;28;20064;-82
2022/10/09 08:26:20;;;;;;;14.55;8.65;;;;;;;8.86;96.79;102493.56;5035225;28;20059;-82
2022/10/09 08:28:54;;;;;;;18.67;10.07;;;;;;;8.82;99.66;102494.56;5037293;28;20041;-83
2022/10/09 08:31:19;;;;;;;16.92;8.85;;;;;;;8.83;98.58;102487.81;5043002;28;20040;-83
2022/10/09 08:33:45;;;;;;;16.02;9.70;;;;;;;8.96;100.00;102492.44;5044183;28;20400;-83
2022/10/09 08:36:14;;;;;;;19.92;9.63;;;;;;;8.98;98.67;102490.16;5027276;28;20037;-83
2022/10/09 08:38:40;;;;;;;17.73;9.13;;;;;;;9.06;99.56;102494.88;5042743;28;20033;-83
2022/10/09 08:41:12;;;;;;;16.27;9.52;;;;;;;9.13;98.82;102484.06;5043985;28;20057;-82
2022/10/09 08:43:42;;;;;;;14.95;7.65;;;;;;;9.16;99.72;102483.38;5047446;28;20542;-82
2022/10/09 08:46:19;;;;;;;19.52;8.63;;;;;;;9.25;100.00;102486.19;5024669;28;20036;-82
2022/10/09 08:48:47;;;;;;;19.10;10.55;;;;;;;9.29;99.72;102486.34;5046910;28;20538;-82
2022/10/09 08:51:20;;;;;;;12.23;8.88;;;;;;;9.34;98.94;102475.03;5052559;28;20025;-83
2022/10/09 08:54:00;;;;;;;23.80;9.50;;;;;;;9.44;99.43;102477.44;5047574;28;20495;-83
2022/10/09 08:56:28;;;;;;;15.65;9.10;;;;;;;9.46;98.67;102472.34;5005625;28;20050;-83
2022/10/09 08:58:53;;;;;;;18.88;9.18;;;;;;;9.48;98.96;102478.44;5002626;28;20030;-83
2022/10/09 09:01:30;;;;;;;23.08;9.02;;;;;;;9.66;98.55;102475.63;4999981;28;20041;-83
2022/10/09 09:04:20;;;;;;;18.95;9.73;;;;;;;9.87;99.43;102456.97;5002758;28;20080;-82
2022/10/09 09:07:14;;;;;;;20.77;9.57;;;;;;;9.92;98.51;102465.16;4996588;28;20441;-81
2022/10/09 09:09:49;;;;;;;16.63;8.85;;;;;;;10.01;98.50;102462.31;5001316;28;20027;-81
2022/10/09 09:12:26;;;;;;;15.60;9.20;;;;;;;10.21;97.31;102452.38;4999372;28;20125;-82
2022/10/09 09:15:05;;;;;;;20.77;10.65;;;;;;;10.38;96.28;102449.50;5003211;28;20167;-80
2022/10/09 09:17:58;;;;;;;24.08;11.07;;;;;;;10.50;95.38;102451.56;4996931;28;20073;-80
2022/10/09 09:20:30;;;;;;;14.48;8.43;;;;;;;10.58;95.60;102447.91;5007608;28;20549;-80
2022/10/09 09:22:59;;;;;;;19.17;10.38;;;;;;;10.65;94.62;102447.38;5005855;28;20125;-80
2022/10/09 09:25:30;;;;;;;21.05;10.05;;;;;;;10.69;94.17;102442.72;5006443;28;20029;-79
2022/10/09 09:28:26;;;;;;;19.40;9.57;;;;;;;10.71;93.69;102437.59;5011931;28;20379;-81
2022/10/09 09:31:01;;;;;;;17.05;10.00;;;;;;;10.83;94.69;102428.44;5010273;28;20064;-80
2022/10/09 09:33:45;;;;;;;24.10;10.43;;;;;;;10.89;94.29;102431.84;5015264;28;20045;-81
2022/10/09 09:36:23;;;;;;;21.83;10.40;;;;;;;10.80;93.89;102431.94;5003400;28;20080;-80
2022/10/09 09:38:50;;;;;;;24.17;9.77;;;;;;;11.00;92.87;102430.25;5009923;28;20030;-80
2022/10/09 09:41:15;;;;;;;20.73;9.52;;;;;;;11.23;92.44;102429.91;5020118;28;20045;-80
2022/10/09 09:43:41;;;;;;;20.10;10.48;;;;;;;11.29;91.27;102418.13;5003565;28;20038;-80
2022/10/09 09:46:15;;;;;;;24.13;10.63;;;;;;;11.33;91.40;102426.66;5013281;28;20117;-80
2022/10/09 09:48:47;;;;;;;20.25;10.38;;;;;;;11.40;90.31;102426.91;5006392;28;20057;-81
2022/10/09 09:51:20;;;;;;;19.13;10.10;;;;;;;11.52;90.81;102424.16;4996954;28;20429;-80
2022/10/09 09:53:47;;;;;;;17.15;9.65;;;;;;;11.57;88.83;102421.13;5000309;28;20065;-80
2022/10/09 09:56:13;;;;;;;24.23;9.57;;;;;;;11.69;87.38;102425.94;5032978;28;20077;-81
2022/10/09 09:58:44;;;;;;;26.05;8.93;;;;;;;11.88;88.36;102419.81;5025979;28;20120;-80
2022/10/09 10:01:23;;;;;;;15.63;8.88;;;;;;;11.88;88.75;102418.97;5025828;28;20056;-80
2022/10/09 10:03:50;;;;;;;18.88;7.80;;;;;;;11.93;85.61;102413.13;5013137;28;20037;-81
2022/10/09 10:06:34;;;;;;;17.05;7.55;;;;;;;11.95;86.24;102408.84;5022704;28;20080;-80
2022/10/09 10:09:00;;;;;;;18.73;9.23;;;;;;;12.02;85.88;102408.25;5024611;28;20033;-80
2022/10/09 10:11:27;;;;;;;16.42;7.57;;;;;;;11.87;86.01;102406.91;5026992;28;20034;-80
2022/10/09 10:13:52;;;;;;;23.77;9.70;;;;;;;12.08;85.03;102400.38;5025848;28;20036;-80
2022/10/09 10:16:22;;;;;;;11.23;6.38;;;;;;;12.30;85.59;102394.31;5026523;28;20028;-81
2022/10/09 10:18:48;;;;;;;14.68;9.20;;;;;;;12.26;83.07;102396.19;5020331;28;20747;-80
2022/10/09 10:21:16;;;;;;;12.50;6.97;;;;;;;12.39;82.28;102397.78;5021886;28;20055;-81
2022/10/09 10:23:59;;;;;;;20.02;7.25;;;;;;;12.64;82.04;102394.94;5021564;28;20025;-81
2022/10/09 10:26:40;;;;;;;17.25;7.80;;;;;;;12.69;81.37;102391.91;5020730;28;20045;-81
2022/10/09 10:29:19;;;;;;;15.45;7.28;;;;;;;12.76;81.83;102397.72;5021631;28;20048;-80
2022/10/09 10:31:58;;;;;;;14.15;6.80;;;;;;;12.81;79.74;102386.22;5029989;28;20154;-80
2022/10/09 10:34:36;;;;;;;15.88;6.15;;;;;;;12.88;78.79;102387.59;5019570;28;20506;-81
2022/10/09 10:37:17;;;;;;;13.35;6.53;;;;;;;12.90;78.13;102369.22;5034546;28;20470;-80
2022/10/09 10:39:56;;;;;;;15.60;6.95;;;;;;;12.79;78.14;102357.66;5034389;28;20026;-80
2022/10/09 10:42:25;;;;;;;13.82;6.28;;;;;;;12.75;79.14;102362.34;5021672;28;20525;-81
2022/10/09 10:45:13;;;;;;;13.45;6.57;;;;;;;13.37;77.79;102359.28;5028593;28;20029;-80
2022/10/09 10:47:47;;;;;;;12.98;6.10;;;;;;;13.34;76.89;102365.63;5026398;28;20117;-81
2022/10/09 10:50:13;;;;;;;19.65;6.20;;;;;;;13.35;75.86;102361.63;5025958;28;20124;-80
2022/10/09 10:53:05;;;;;;;17.88;5.80;;;;;;;13.39;76.44;102357.75;5028178;28;20401;-81
2022/10/09 10:55:36;;;;;;;11.85;5.28;;;;;;;13.36;74.68;102352.00;5022826;28;20208;-81
2022/10/09 10:58:37;;;;;;;12.05;4.63;;;;;;;13.62;73.97;102338.25;5032312;28;20431;-81
2022/10/09 11:01:49;;;;;;;13.45;5.30;;;;;;;13.55;73.86;102338.03;5016300;28;20025;-81
2022/10/09 11:04:48;;;;;;;12.60;4.77;;;;;;;13.84;72.35;102341.56;5006386;28;20041;-81
2022/10/09 11:07:20;;;;;;;10.55;5.35;;;;;;;13.72;73.67;102331.22;5027139;28;20033;-81
2022/10/09 11:09:45;;;;;;;9.88;5.10;;;;;;;14.11;72.21;102333.38;5016414;28;20029;-81
2022/10/09 11:12:33;;;;;;;10.82;5.40;;;;;;;13.99;71.82;102335.09;5025090;28;20366;-81
2022/10/09 11:15:20;;;;;;;12.45;5.32;;;;;;;14.27;69.35;102327.69;5011637;28;20034;-82
2022/10/09 11:18:17;;;;;;;11.27;5.05;;;;;;;14.35;68.60;102327.47;5019939;28;20021;-81
2022/10/09 11:21:08;;;;;;;13.15;4.63;;;;;;;13.85;73.51;102323.53;5017541;28;20136;-84
2022/10/09 11:23:46;;;;;;;12.60;4.82;;;;;;;14.10;72.50;102312.81;5020891;28;20429;-80
2022/10/09 11:26:19;;;;;;;13.85;7.07;;;;;;;14.28;80.67;102310.41;5024335;28;20021;-82
2022/10/09 11:28:52;;;;;;;11.10;5.15;;;;;;;14.93;72.07;102308.97;5027458;28;20083;-79
2022/10/09 11:31:41;;;;;;;13.93;6.45;;;;;;;15.51;75.13;102300.31;5022385;28;20033;-82
2022/10/09 11:34:19;;;;;;;16.90;5.80;;;;;;;15.57;66.89;102287.53;5022065;28;20037;-82
2022/10/09 11:36:44;;;;;;;13.15;4.13;;;;;;;14.68;67.00;102286.72;5028066;28;20084;-81
2022/10/09 11:39:14;;;;;;;15.65;4.20;;;;;;;14.80;68.49;102280.94;5022435;28;20048;-82